Time;durP1;ratioP1;P1;durP2;ratioP2;P2;SDS_P1;SDS_P2;PMS_P1;PMS_P2;Temp;Humidity;BMP_temperature;BMP_pressure;BME280_temperature;BME280_humidity;BME280_pressure;Samples;Min_cycle;Max_cycle;Signal;HPM_P1;HPM_P2
2023/07/30 00:01:11;;;;;;;6.57;1.55;;;;;;;15.06;98.49;99882.34;5034177;28;20465;-93
2023/07/30 00:03:37;;;;;;;7.63;1.30;;;;;;;15.06;100.00;99887.53;5034018;28;20021;-91
2023/07/30 00:06:02;;;;;;;6.85;1.35;;;;;;;15.10;100.00;99889.75;5034223;28;20060;-92
2023/07/30 00:08:28;;;;;;;7.88;2.17;;;;;;;15.08;100.00;99885.63;5032890;28;20033;-93
2023/07/30 00:10:53;;;;;;;12.27;2.17;;;;;;;15.08;100.00;99878.66;5015828;28;20049;-92
2023/07/30 00:13:18;;;;;;;16.35;2.85;;;;;;;14.96;100.00;99880.50;5031631;28;20419;-93
2023/07/30 00:15:47;;;;;;;14.85;1.85;;;;;;;14.83;100.00;99884.28;5032245;28;20037;-93
2023/07/30 00:18:13;;;;;;;9.70;1.75;;;;;;;14.92;100.00;99880.91;5032585;28;20083;-93
2023/07/30 00:20:38;;;;;;;8.15;1.83;;;;;;;14.89;100.00;99884.56;5032104;28;20454;-93
2023/07/30 00:23:03;;;;;;;6.20;1.10;;;;;;;14.75;100.00;99879.72;5033026;28;20033;-93
2023/07/30 00:25:29;;;;;;;9.27;1.85;;;;;;;14.76;100.00;99878.78;5033362;28;20029;-93
2023/07/30 00:27:54;;;;;;;6.35;1.30;;;;;;;14.92;100.00;99876.53;5034014;28;20387;-93
2023/07/30 00:30:19;;;;;;;11.85;1.75;;;;;;;14.76;100.00;99879.59;5032619;28;20149;-94
2023/07/30 00:32:45;;;;;;;11.70;1.85;;;;;;;14.73;100.00;99871.25;5033049;28;20026;-92
2023/07/30 00:35:10;;;;;;;8.15;1.40;;;;;;;14.74;100.00;99875.47;5033503;28;20026;-93
2023/07/30 00:37:36;;;;;;;8.52;1.63;;;;;;;14.75;100.00;99887.50;5033596;28;20068;-94
2023/07/30 00:40:02;;;;;;;11.20;2.00;;;;;;;14.77;100.00;99891.63;5033605;28;20120;-93
2023/07/30 00:42:28;;;;;;;9.80;1.85;;;;;;;14.58;100.00;99885.50;5032071;28;20542;-93
2023/07/30 00:44:53;;;;;;;7.97;1.20;;;;;;;14.51;100.00;99888.59;5032939;28;20025;-93
2023/07/30 00:47:19;;;;;;;7.07;1.83;;;;;;;14.65;100.00;99889.22;5033570;28;20036;-92
2023/07/30 00:49:44;;;;;;;11.20;1.30;;;;;;;14.66;100.00;99896.09;5015596;28;20383;-92
2023/07/30 00:52:10;;;;;;;10.27;2.50;;;;;;;14.75;100.00;99900.50;5033352;28;20033;-93
2023/07/30 00:54:36;;;;;;;10.73;1.70;;;;;;;14.74;100.00;99899.69;5033053;28;20029;-93
2023/07/30 00:57:02;;;;;;;13.02;2.40;;;;;;;14.73;100.00;99900.66;5032995;28;20113;-93
2023/07/30 00:59:27;;;;;;;10.00;2.20;;;;;;;14.63;100.00;99901.50;5032878;28;20029;-92
2023/07/30 01:01:53;;;;;;;9.05;1.98;;;;;;;14.53;100.00;99902.31;5032125;28;20025;-92
2023/07/30 01:04:18;;;;;;;14.38;2.30;;;;;;;14.38;100.00;99908.69;5033025;28;20022;-92
2023/07/30 01:06:44;;;;;;;9.48;1.80;;;;;;;14.40;100.00;99906.00;5015102;28;20036;-92
2023/07/30 01:09:11;;;;;;;8.30;1.75;;;;;;;14.28;100.00;99900.03;5032940;28;20049;-92
2023/07/30 01:11:38;;;;;;;14.63;3.25;;;;;;;14.32;100.00;99904.03;5031579;28;20084;-92
2023/07/30 01:14:05;;;;;;;7.22;1.50;;;;;;;14.35;100.00;99906.38;5032404;28;20463;-92
2023/07/30 01:16:31;;;;;;;7.40;1.42;;;;;;;14.39;100.00;99904.31;5015110;28;20063;-92
2023/07/30 01:18:58;;;;;;;7.88;1.77;;;;;;;14.19;100.00;99901.63;5032417;28;20068;-93
2023/07/30 01:21:24;;;;;;;9.25;1.70;;;;;;;14.54;100.00;99896.16;5032557;28;20215;-93
2023/07/30 01:23:49;;;;;;;10.13;2.47;;;;;;;14.31;100.00;99898.03;5032481;28;20102;-92
2023/07/30 01:26:27;;;;;;;11.52;2.78;;;;;;;14.41;100.00;99908.47;5032573;28;20383;-92
2023/07/30 01:28:58;;;;;;;8.95;1.52;;;;;;;14.24;100.00;99906.41;5031798;28;20100;-92
2023/07/30 01:31:26;;;;;;;9.70;1.98;;;;;;;14.43;100.00;99911.75;5032422;28;20041;-92
2023/07/30 01:33:54;;;;;;;11.52;2.33;;;;;;;14.26;100.00;99904.50;5032163;28;20033;-93
2023/07/30 01:36:20;;;;;;;12.30;1.73;;;;;;;14.37;100.00;99911.44;5032339;28;20033;-92
2023/07/30 01:38:47;;;;;;;18.02;2.45;;;;;;;14.26;100.00;99907.94;5014629;28;20515;-92
2023/07/30 01:41:13;;;;;;;14.80;1.95;;;;;;;14.34;100.00;99907.31;5013479;28;20021;-92
2023/07/30 01:43:38;;;;;;;14.00;1.85;;;;;;;14.33;100.00;99900.47;5014343;28;20120;-92
2023/07/30 01:46:03;;;;;;;8.40;2.20;;;;;;;14.36;100.00;99913.19;5032068;28;20026;-92
2023/07/30 01:48:29;;;;;;;15.30;2.92;;;;;;;14.30;100.00;99906.75;5032328;28;20123;-92
2023/07/30 01:50:54;;;;;;;11.68;2.80;;;;;;;14.27;100.00;99906.19;5032007;28;20025;-92
2023/07/30 01:53:20;;;;;;;13.13;2.17;;;;;;;14.31;100.00;99907.56;5014483;28;20429;-92
2023/07/30 01:55:46;;;;;;;12.73;2.53;;;;;;;14.32;100.00;99909.22;5032432;28;20360;-92
2023/07/30 01:58:12;;;;;;;9.13;2.00;;;;;;;14.37;100.00;99912.25;5031902;28;20053;-93
2023/07/30 02:00:38;;;;;;;15.18;2.47;;;;;;;14.30;100.00;99905.91;5031051;28;20029;-92
2023/07/30 02:03:04;;;;;;;17.48;2.97;;;;;;;14.51;100.00;99909.38;5031849;28;20380;-94
2023/07/30 02:05:29;;;;;;;14.25;2.83;;;;;;;14.47;100.00;99907.97;5031286;28;20056;-94
2023/07/30 02:07:55;;;;;;;11.52;2.50;;;;;;;14.44;100.00;99918.59;5028428;28;20493;-94
2023/07/30 02:10:20;;;;;;;15.45;1.98;;;;;;;14.44;100.00;99918.59;5032030;28;20550;-93
2023/07/30 02:12:45;;;;;;;16.58;2.65;;;;;;;14.32;100.00;99910.03;5032598;28;20085;-93
2023/07/30 02:15:11;;;;;;;17.75;2.95;;;;;;;14.29;100.00;99915.50;5036019;28;20022;-93
2023/07/30 02:17:36;;;;;;;15.68;2.65;;;;;;;14.26;100.00;99910.53;5035759;28;20120;-93
2023/07/30 02:20:02;;;;;;;20.75;2.20;;;;;;;14.24;100.00;99922.81;5035002;28;20029;-91
2023/07/30 02:22:28;;;;;;;8.73;2.22;;;;;;;14.18;100.00;99912.09;5035418;28;20033;-93
2023/07/30 02:24:53;;;;;;;13.38;2.40;;;;;;;14.12;100.00;99932.41;5035541;28;20021;-92
2023/07/30 02:27:18;;;;;;;17.88;2.67;;;;;;;14.42;100.00;99925.69;5035669;28;20120;-92
2023/07/30 02:29:44;;;;;;;18.30;2.80;;;;;;;14.30;100.00;99921.50;5034598;28;20026;-92
2023/07/30 02:32:09;;;;;;;16.83;3.40;;;;;;;14.19;100.00;99919.78;5035436;28;20030;-91
2023/07/30 02:34:34;;;;;;;21.85;4.25;;;;;;;14.16;100.00;99925.19;5035409;28;20046;-91
2023/07/30 02:37:00;;;;;;;14.60;2.45;;;;;;;14.25;100.00;99923.66;5034367;28;20107;-90
2023/07/30 02:39:25;;;;;;;13.93;2.28;;;;;;;14.11;100.00;99914.38;5022532;28;20021;-92
2023/07/30 02:41:51;;;;;;;14.93;2.72;;;;;;;14.13;100.00;99915.88;5028691;28;20052;-92
2023/07/30 02:44:16;;;;;;;16.88;2.85;;;;;;;14.04;100.00;99916.63;5017581;28;20467;-92
2023/07/30 02:46:41;;;;;;;20.48;2.00;;;;;;;13.93;100.00;99908.91;5034118;28;20068;-92
2023/07/30 02:49:08;;;;;;;11.90;1.98;;;;;;;13.94;100.00;99905.34;5035577;28;20034;-92
2023/07/30 02:51:33;;;;;;;15.75;2.50;;;;;;;13.92;100.00;99907.22;5035249;28;20025;-92
2023/07/30 02:54:03;;;;;;;11.77;2.45;;;;;;;13.86;100.00;99905.13;5034950;28;20032;-92
2023/07/30 02:56:28;;;;;;;14.82;2.10;;;;;;;13.87;100.00;99910.19;5017432;28;20049;-92
2023/07/30 02:58:54;;;;;;;17.27;2.42;;;;;;;13.90;100.00;99911.75;5035079;28;20072;-92
2023/07/30 03:01:19;;;;;;;16.55;2.80;;;;;;;13.97;100.00;99905.09;5035014;28;20021;-92
2023/07/30 03:03:44;;;;;;;15.85;2.00;;;;;;;13.97;100.00;99912.88;5017203;28;20361;-92
2023/07/30 03:06:10;;;;;;;11.15;2.35;;;;;;;13.97;100.00;99905.09;5034983;28;20078;-92
2023/07/30 03:08:36;;;;;;;14.85;2.00;;;;;;;13.98;100.00;99906.75;5033679;28;20198;-92
2023/07/30 03:11:01;;;;;;;16.80;2.40;;;;;;;14.04;100.00;99895.88;5034209;28;20033;-92
2023/07/30 03:13:26;;;;;;;19.75;3.40;;;;;;;13.96;100.00;99906.03;5033058;28;20026;-91
2023/07/30 03:15:52;;;;;;;18.58;3.65;;;;;;;14.08;100.00;99899.06;5033578;28;20021;-92
2023/07/30 03:18:17;;;;;;;15.77;2.10;;;;;;;14.04;100.00;99913.22;5034719;28;20030;-92
2023/07/30 03:20:43;;;;;;;14.05;2.55;;;;;;;13.98;100.00;99911.94;5033831;28;20108;-92
2023/07/30 03:23:08;;;;;;;17.27;3.17;;;;;;;14.17;100.00;99920.81;5031300;28;20025;-92
2023/07/30 03:25:33;;;;;;;12.65;2.13;;;;;;;14.05;100.00;99917.47;5034237;28;20037;-92
2023/07/30 03:27:59;;;;;;;17.17;2.95;;;;;;;14.05;100.00;99917.47;5032923;28;20038;-93
2023/07/30 03:30:24;;;;;;;14.32;2.40;;;;;;;14.01;100.00;99911.69;5034093;28;20550;-92
2023/07/30 03:32:49;;;;;;;16.15;2.50;;;;;;;14.01;100.00;99922.06;5016705;28;20387;-94
2023/07/30 03:35:15;;;;;;;13.20;3.15;;;;;;;14.02;100.00;99928.91;5034241;28;20383;-93
2023/07/30 03:37:40;;;;;;;11.57;2.05;;;;;;;14.01;100.00;99927.25;5033948;28;20133;-92
2023/07/30 03:40:06;;;;;;;13.02;1.92;;;;;;;14.03;100.00;99937.53;5033298;28;20025;-92
2023/07/30 03:42:32;;;;;;;18.83;3.60;;;;;;;14.03;100.00;99920.19;5033832;28;20100;-92
2023/07/30 03:44:57;;;;;;;19.50;1.90;;;;;;;14.07;100.00;99931.97;5033974;28;20121;-93
2023/07/30 03:47:22;;;;;;;14.43;3.10;;;;;;;14.03;100.00;99935.75;5034159;28;20025;-93
2023/07/30 03:49:48;;;;;;;12.25;2.22;;;;;;;13.94;100.00;99931.28;5016136;28;20467;-94
2023/07/30 03:52:13;;;;;;;14.73;3.40;;;;;;;14.03;100.00;99938.34;5034079;28;20367;-92
2023/07/30 03:54:38;;;;;;;15.45;2.72;;;;;;;14.03;100.00;99940.94;5033373;28;20069;-93
2023/07/30 03:57:04;;;;;;;11.70;2.13;;;;;;;13.84;100.00;99941.56;5015731;28;20112;-93
2023/07/30 03:59:29;;;;;;;11.32;2.15;;;;;;;13.78;100.00;99941.25;5032576;28;20029;-92
2023/07/30 04:01:55;;;;;;;11.55;1.90;;;;;;;13.82;100.00;99948.63;5032805;28;20026;-93
2023/07/30 04:04:20;;;;;;;12.02;2.28;;;;;;;13.77;100.00;99949.97;5033825;28;20056;-92
2023/07/30 04:06:45;;;;;;;18.52;2.67;;;;;;;13.84;100.00;99946.75;5033794;28;20072;-93
2023/07/30 04:09:11;;;;;;;12.15;2.30;;;;;;;13.82;100.00;99953.00;5033019;28;20029;-92
2023/07/30 04:11:36;;;;;;;12.93;2.88;;;;;;;13.84;100.00;99958.91;5033916;28;20087;-94
2023/07/30 04:14:04;;;;;;;14.80;2.53;;;;;;;13.80;100.00;99963.53;5033120;28;20037;-92
2023/07/30 04:16:30;;;;;;;8.35;2.28;;;;;;;13.77;100.00;99955.16;5033487;28;20053;-93
2023/07/30 04:18:55;;;;;;;11.07;2.17;;;;;;;13.75;100.00;99951.84;5015592;28;20065;-94
2023/07/30 04:21:20;;;;;;;12.40;3.05;;;;;;;13.76;100.00;99959.50;5033614;28;20482;-93
2023/07/30 04:23:46;;;;;;;8.52;2.13;;;;;;;13.78;100.00;99965.41;5033012;28;20052;-91
2023/07/30 04:26:11;;;;;;;15.57;2.17;;;;;;;13.87;100.00;99956.06;5032901;28;20092;-91
2023/07/30 04:28:37;;;;;;;18.08;3.22;;;;;;;13.85;100.00;99968.31;5030288;28;20458;-91
2023/07/30 04:31:02;;;;;;;9.25;2.15;;;;;;;13.84;100.00;99966.69;5032119;28;20030;-91
2023/07/30 04:33:28;;;;;;;9.65;2.17;;;;;;;13.80;100.00;99965.28;5032957;28;20022;-91
2023/07/30 04:35:54;;;;;;;19.02;2.75;;;;;;;13.73;100.00;99970.13;5015502;28;20087;-91
2023/07/30 04:38:19;;;;;;;15.80;2.47;;;;;;;13.75;100.00;99972.59;5032706;28;20475;-91
2023/07/30 04:40:44;;;;;;;9.30;1.85;;;;;;;13.71;100.00;99977.22;5033072;28;20029;-91
2023/07/30 04:43:10;;;;;;;9.90;3.03;;;;;;;13.72;100.00;99978.03;5032725;28;20033;-91
2023/07/30 04:45:35;;;;;;;13.32;2.28;;;;;;;13.73;100.00;99980.50;5015073;28;20496;-91
2023/07/30 04:48:01;;;;;;;12.38;2.70;;;;;;;13.68;100.00;99978.28;5015392;28;20486;-91
2023/07/30 04:50:26;;;;;;;14.20;2.30;;;;;;;13.67;100.00;99979.19;5032944;28;20443;-91
2023/07/30 04:52:52;;;;;;;17.33;2.55;;;;;;;13.64;100.00;99974.25;5032758;28;20090;-91
2023/07/30 04:55:17;;;;;;;14.18;2.75;;;;;;;13.72;100.00;99967.66;5015059;28;20151;-92
2023/07/30 04:57:42;;;;;;;14.50;2.17;;;;;;;13.59;100.00;99978.97;5031411;28;20025;-92
2023/07/30 05:00:08;;;;;;;9.82;2.00;;;;;;;13.68;100.00;99982.63;5014355;28;20078;-91
2023/07/30 05:02:33;;;;;;;7.88;1.77;;;;;;;13.72;100.00;99978.03;5014561;28;20045;-91
2023/07/30 05:04:59;;;;;;;9.18;2.28;;;;;;;13.63;100.00;99980.41;5032660;28;20024;-92
2023/07/30 05:07:24;;;;;;;13.00;2.20;;;;;;;13.59;100.00;99981.56;5032751;28;20630;-90
2023/07/30 05:09:49;;;;;;;13.43;1.80;;;;;;;13.87;100.00;99992.38;5032632;28;20434;-92
2023/07/30 05:12:15;;;;;;;17.38;3.70;;;;;;;13.71;100.00;99987.59;5032449;28;20029;-92
2023/07/30 05:14:40;;;;;;;10.85;2.28;;;;;;;13.80;100.00;99986.03;5031872;28;20092;-91
2023/07/30 05:17:06;;;;;;;14.27;2.17;;;;;;;13.84;100.00;99971.88;5032434;28;20087;-91
2023/07/30 05:19:32;;;;;;;11.00;2.20;;;;;;;13.81;100.00;99972.13;5031192;28;20040;-91
2023/07/30 05:21:59;;;;;;;19.20;3.17;;;;;;;13.80;100.00;99975.66;5032257;28;20049;-91
2023/07/30 05:24:24;;;;;;;9.35;2.20;;;;;;;13.73;100.00;99979.66;5032269;28;20108;-91
2023/07/30 05:26:50;;;;;;;11.70;2.35;;;;;;;13.69;100.00;99987.69;5032286;28;20117;-92
2023/07/30 05:29:15;;;;;;;13.68;2.13;;;;;;;13.80;100.00;99983.44;5014075;28;20541;-92
2023/07/30 05:31:40;;;;;;;11.05;2.03;;;;;;;13.91;100.00;99983.44;5031928;28;20479;-92
2023/07/30 05:34:06;;;;;;;12.77;2.80;;;;;;;14.02;100.00;99988.59;5014447;28;20422;-92
2023/07/30 05:36:31;;;;;;;17.10;2.50;;;;;;;14.06;100.00;99992.59;5032039;28;20147;-92
2023/07/30 05:38:56;;;;;;;15.73;3.20;;;;;;;14.13;100.00;99983.38;5014426;28;20021;-92
2023/07/30 05:41:22;;;;;;;17.42;2.10;;;;;;;14.13;100.00;100008.50;5032123;28;20160;-92
2023/07/30 05:43:48;;;;;;;14.18;2.25;;;;;;;14.06;100.00;100002.97;5031370;28;20033;-91
2023/07/30 05:46:14;;;;;;;11.25;2.15;;;;;;;14.02;100.00;100011.97;5031645;28;20056;-91
2023/07/30 05:48:39;;;;;;;12.77;2.30;;;;;;;13.90;100.00;100007.72;5030640;28;20068;-91
2023/07/30 05:51:05;;;;;;;9.93;2.53;;;;;;;13.96;100.00;100004.63;5031889;28;20024;-90
2023/07/30 05:53:30;;;;;;;10.63;2.30;;;;;;;13.91;100.00;100015.38;5014099;28;20174;-91
2023/07/30 05:55:55;;;;;;;17.95;3.00;;;;;;;13.80;100.00;100011.97;5031941;28;20028;-91
2023/07/30 05:58:21;;;;;;;11.88;2.50;;;;;;;13.78;100.00;99998.31;5031637;28;20036;-91
2023/07/30 06:00:46;;;;;;;13.50;2.70;;;;;;;13.77;100.00;100009.63;5031355;28;20614;-91
2023/07/30 06:03:11;;;;;;;11.65;2.10;;;;;;;13.91;100.00;100004.19;5031564;28;20025;-90
2023/07/30 06:05:41;;;;;;;9.90;1.92;;;;;;;13.97;100.00;100008.88;5031688;28;20033;-91
2023/07/30 06:08:07;;;;;;;12.60;2.00;;;;;;;14.18;100.00;100023.72;5031591;28;20022;-91
2023/07/30 06:10:38;;;;;;;7.80;2.55;;;;;;;14.20;100.00;100019.22;5031238;28;20025;-91
2023/07/30 06:13:06;;;;;;;12.43;2.70;;;;;;;14.19;100.00;100010.63;5031485;28;20025;-91
2023/07/30 06:15:32;;;;;;;13.95;2.97;;;;;;;14.37;100.00;100015.28;5031479;28;20029;-90
2023/07/30 06:17:58;;;;;;;10.57;2.50;;;;;;;14.28;100.00;100019.44;5031115;28;20486;-91
2023/07/30 06:20:23;;;;;;;15.82;2.67;;;;;;;14.27;100.00;100012.59;5012715;28;20033;-90
2023/07/30 06:22:49;;;;;;;11.45;2.95;;;;;;;14.35;100.00;100023.19;5031640;28;20625;-91
2023/07/30 06:25:14;;;;;;;13.20;2.42;;;;;;;14.44;100.00;100012.06;5013281;28;20120;-91
2023/07/30 06:27:40;;;;;;;14.13;2.25;;;;;;;14.84;100.00;100015.84;5031512;28;20083;-91
2023/07/30 06:30:05;;;;;;;21.25;2.50;;;;;;;14.97;100.00;100019.06;5031694;28;20042;-91
2023/07/30 06:32:31;;;;;;;11.27;1.98;;;;;;;15.11;100.00;100025.72;5031430;28;20471;-91
2023/07/30 06:34:56;;;;;;;16.52;2.80;;;;;;;15.67;100.00;100020.13;5031614;28;20389;-90
2023/07/30 06:37:21;;;;;;;12.93;2.63;;;;;;;16.78;100.00;100013.06;5012848;28;20036;-91
2023/07/30 06:39:47;;;;;;;15.48;2.20;;;;;;;16.35;100.00;100016.91;5030871;28;20057;-91
2023/07/30 06:42:12;;;;;;;9.40;2.53;;;;;;;18.92;85.97;100012.88;5031384;28;20022;-91
2023/07/30 06:44:38;;;;;;;10.57;2.35;;;;;;;19.49;79.01;100008.97;5031211;28;20037;-91
2023/07/30 06:47:03;;;;;;;7.60;1.83;;;;;;;20.08;73.64;100009.84;5031393;28;20076;-92
2023/07/30 06:49:29;;;;;;;8.27;1.75;;;;;;;20.53;73.81;100022.53;5011922;28;20479;-91
2023/07/30 06:51:54;;;;;;;16.88;2.65;;;;;;;19.28;77.69;100023.22;5031197;28;20040;-92
2023/07/30 06:54:20;;;;;;;18.60;3.15;;;;;;;19.54;77.81;100023.22;5030467;28;20079;-91
2023/07/30 06:56:45;;;;;;;14.18;2.15;;;;;;;18.22;83.94;100020.56;5031208;28;20097;-92
2023/07/30 06:59:11;;;;;;;8.65;2.55;;;;;;;17.24;91.45;100035.81;5015164;28;20083;-91
2023/07/30 07:01:36;;;;;;;14.13;2.63;;;;;;;18.36;87.14;100025.28;5035028;28;20044;-91
2023/07/30 07:04:02;;;;;;;9.77;2.03;;;;;;;22.35;64.33;100026.34;5034461;28;20498;-93
2023/07/30 07:06:27;;;;;;;14.32;2.13;;;;;;;21.32;69.21;100030.69;5035064;28;20083;-91
2023/07/30 07:08:52;;;;;;;14.80;2.78;;;;;;;22.29;64.87;100027.88;5015745;28;20479;-91
2023/07/30 07:11:18;;;;;;;10.07;2.63;;;;;;;19.79;73.04;100036.44;5016963;28;20384;-92
2023/07/30 07:13:43;;;;;;;9.63;2.40;;;;;;;18.49;82.85;100037.16;5034701;28;20031;-91
2023/07/30 07:16:08;;;;;;;15.95;2.83;;;;;;;21.73;66.74;100025.34;5034754;28;20025;-91
2023/07/30 07:18:34;;;;;;;10.05;2.55;;;;;;;23.18;60.34;100033.41;5034090;28;20076;-92
2023/07/30 07:20:59;;;;;;;12.38;3.30;;;;;;;23.12;58.29;100035.94;5035075;28;20021;-92
2023/07/30 07:23:24;;;;;;;15.60;2.92;;;;;;;24.76;54.73;100045.22;5016731;28;20537;-91
2023/07/30 07:25:52;;;;;;;15.07;2.88;;;;;;;23.71;56.58;100038.59;5034575;28;20033;-92
2023/07/30 07:28:18;;;;;;;10.75;2.60;;;;;;;24.13;54.81;100042.34;5034045;28;20048;-92
2023/07/30 07:30:44;;;;;;;18.40;2.72;;;;;;;24.30;53.61;100038.47;5016392;28;20124;-91
2023/07/30 07:33:12;;;;;;;17.75;2.58;;;;;;;23.47;56.37;100042.31;5016639;28;20125;-92
2023/07/30 07:35:40;;;;;;;13.15;2.22;;;;;;;24.85;52.38;100051.16;5034435;28;20450;-91
2023/07/30 07:38:06;;;;;;;23.98;2.67;;;;;;;25.20;48.89;100047.59;5033334;28;20117;-91
2023/07/30 07:40:39;;;;;;;11.18;3.42;;;;;;;25.79;51.07;100048.13;5016775;28;20461;-92
2023/07/30 07:43:04;;;;;;;9.15;2.95;;;;;;;25.76;49.54;100048.53;5033356;28;20038;-91
2023/07/30 07:45:30;;;;;;;13.95;2.60;;;;;;;24.03;52.83;100049.75;5032665;28;20033;-92
2023/07/30 07:47:55;;;;;;;10.75;2.53;;;;;;;24.05;53.91;100059.09;5033836;28;20072;-92
2023/07/30 07:50:20;;;;;;;12.25;2.78;;;;;;;23.28;57.62;100048.94;5033842;28;20488;-91
2023/07/30 07:52:46;;;;;;;12.77;2.70;;;;;;;22.61;60.95;100047.84;5033678;28;20387;-92
2023/07/30 07:55:11;;;;;;;13.38;2.75;;;;;;;22.43;61.71;100055.19;5033553;28;20291;-92
2023/07/30 07:57:36;;;;;;;13.10;3.63;;;;;;;22.28;61.81;100056.94;5033904;28;20117;-91
2023/07/30 08:00:05;;;;;;;14.05;2.83;;;;;;;21.10;66.72;100057.63;5033723;28;20057;-92
2023/07/30 08:02:30;;;;;;;10.00;2.08;;;;;;;19.72;68.45;100057.19;5032130;28;20026;-92
2023/07/30 08:04:55;;;;;;;13.48;2.67;;;;;;;19.28;72.44;100062.47;5033604;28;20034;-92
2023/07/30 08:07:21;;;;;;;11.45;2.60;;;;;;;18.75;75.15;100053.72;5033210;28;20060;-92
2023/07/30 08:09:46;;;;;;;11.75;2.92;;;;;;;18.89;76.18;100049.75;5029919;28;20388;-91
2023/07/30 08:12:12;;;;;;;8.65;2.58;;;;;;;18.81;77.32;100047.91;5031554;28;20078;-91
2023/07/30 08:14:38;;;;;;;14.10;2.35;;;;;;;18.61;76.11;100054.25;5032681;28;20040;-93
2023/07/30 08:17:04;;;;;;;12.02;2.33;;;;;;;18.56;77.40;100056.50;5032281;28;20034;-93
2023/07/30 08:19:30;;;;;;;17.50;2.67;;;;;;;18.27;78.40;100057.50;5032047;28;20033;-91
2023/07/30 08:21:56;;;;;;;16.55;2.70;;;;;;;17.87;78.24;100053.44;5014034;28;20076;-93
2023/07/30 08:24:22;;;;;;;10.95;2.88;;;;;;;17.54;81.70;100070.47;5031782;28;20387;-92
2023/07/30 08:26:48;;;;;;;10.80;2.45;;;;;;;17.49;85.82;100060.44;5032549;28;20475;-92
2023/07/30 08:29:14;;;;;;;9.50;2.13;;;;;;;17.16;88.33;100059.13;5032736;28;20055;-92
2023/07/30 08:31:41;;;;;;;4.05;1.20;;;;;;;17.35;88.23;100063.50;5015643;28;20049;-91
2023/07/30 08:34:06;;;;;;;11.63;2.60;;;;;;;17.09;93.65;100068.47;5033202;28;20028;-91
2023/07/30 08:36:32;;;;;;;8.57;1.70;;;;;;;17.81;92.50;100059.25;5032935;28;20025;-92
2023/07/30 08:38:57;;;;;;;6.43;1.52;;;;;;;18.55;86.74;100052.22;5032533;28;20033;-93
2023/07/30 08:41:23;;;;;;;6.70;1.60;;;;;;;18.66;82.27;100056.41;5033244;28;20021;-93
2023/07/30 08:43:48;;;;;;;4.82;1.45;;;;;;;19.20;83.11;100058.00;5032847;28;20057;-93
2023/07/30 08:46:15;;;;;;;8.10;1.58;;;;;;;18.33;83.28;100051.69;5032907;28;20028;-93
2023/07/30 08:48:41;;;;;;;6.93;1.35;;;;;;;18.37;83.45;100049.59;5014837;28;20387;-93
2023/07/30 08:51:06;;;;;;;6.88;2.72;;;;;;;17.77;86.76;100050.03;5015086;28;20017;-93
2023/07/30 08:53:32;;;;;;;3.78;1.10;;;;;;;17.62;91.47;100051.47;5032818;28;20112;-94
2023/07/30 08:55:59;;;;;;;6.30;1.40;;;;;;;17.67;90.47;100041.41;5014382;28;20033;-92
2023/07/30 08:58:26;;;;;;;4.47;1.23;;;;;;;17.09;91.78;100045.84;5032038;28;20029;-92
2023/07/30 09:00:55;;;;;;;4.88;1.00;;;;;;;17.15;93.99;100054.06;5031998;28;20021;-92
2023/07/30 09:03:22;;;;;;;6.18;1.42;;;;;;;17.14;96.19;100042.81;5031952;28;20400;-92
2023/07/30 09:05:48;;;;;;;4.90;1.00;;;;;;;17.32;93.57;100041.13;5031855;28;20040;-92
2023/07/30 09:08:14;;;;;;;5.10;0.98;;;;;;;17.49;93.47;100054.41;5031869;28;20025;-93
2023/07/30 09:10:40;;;;;;;3.05;0.60;;;;;;;17.33;93.17;100049.78;5032777;28;20456;-93
2023/07/30 09:13:05;;;;;;;1.77;0.40;;;;;;;17.35;94.00;100042.63;5033127;28;20463;-93
2023/07/30 09:15:38;;;;;;;0.95;0.38;;;;;;;17.33;95.45;100044.56;5014555;28;20041;-93
2023/07/30 09:18:05;;;;;;;2.30;0.77;;;;;;;17.75;94.81;100049.34;5031981;28;20026;-92
2023/07/30 09:20:40;;;;;;;1.42;0.50;;;;;;;17.71;93.65;100053.22;5032027;28;20635;-93
2023/07/30 09:23:09;;;;;;;2.15;0.70;;;;;;;17.47;94.65;100057.16;5030863;28;20071;-93
2023/07/30 09:25:36;;;;;;;3.58;0.70;;;;;;;17.34;96.37;100056.66;5032100;28;20078;-93
2023/07/30 09:28:02;;;;;;;2.85;0.60;;;;;;;17.47;97.42;100041.50;5013995;28;20395;-92
2023/07/30 09:30:27;;;;;;;1.50;0.70;;;;;;;17.49;95.10;100055.22;5031666;28;20036;-93
2023/07/30 09:32:56;;;;;;;2.35;0.30;;;;;;;17.31;97.40;100049.94;5032259;28;20052;-92
2023/07/30 09:35:24;;;;;;;1.45;0.57;;;;;;;17.27;96.26;100042.53;5031883;28;20049;-93
2023/07/30 09:37:57;;;;;;;1.40;0.40;;;;;;;17.28;97.54;100041.53;5031488;28;20110;-92
2023/07/30 09:40:31;;;;;;;0.57;0.40;;;;;;;17.65;93.56;100038.94;5031738;28;20503;-93
2023/07/30 09:42:57;;;;;;;0.40;0.20;;;;;;;17.80;94.66;100041.97;5031755;28;20037;-93
2023/07/30 09:45:25;;;;;;;0.38;0.22;;;;;;;17.73;96.17;100046.09;5031205;28;20028;-93
2023/07/30 09:47:51;;;;;;;1.23;0.20;;;;;;;17.55;95.18;100038.16;5013643;28;20029;-91
2023/07/30 09:50:17;;;;;;;0.25;0.15;;;;;;;17.52;96.05;100034.06;5031066;28;20123;-91
2023/07/30 09:52:43;;;;;;;0.93;0.32;;;;;;;17.52;95.88;100033.25;5031187;28;20495;-94
2023/07/30 09:55:09;;;;;;;1.65;0.40;;;;;;;17.28;98.20;100038.94;5015454;28;20021;-92
2023/07/30 09:57:35;;;;;;;3.72;0.88;;;;;;;17.42;97.70;100028.06;5036157;28;20033;-91
2023/07/30 10:00:03;;;;;;;2.33;0.80;;;;;;;17.33;97.39;100039.34;5031034;28;20069;-91
2023/07/30 10:02:33;;;;;;;2.88;0.85;;;;;;;17.36;98.09;100036.44;5031183;28;20029;-92
2023/07/30 10:05:00;;;;;;;3.88;0.80;;;;;;;17.54;99.11;100042.56;5031972;28;20029;-91
2023/07/30 10:07:28;;;;;;;2.80;0.82;;;;;;;17.60;98.43;100042.97;5043428;28;20025;-92
2023/07/30 10:09:58;;;;;;;5.68;0.85;;;;;;;17.48;97.10;100040.53;5031408;28;20103;-92
2023/07/30 10:12:28;;;;;;;1.80;0.73;;;;;;;17.45;97.74;100040.81;5031203;28;20068;-93
2023/07/30 10:14:54;;;;;;;4.95;0.90;;;;;;;17.57;97.24;100038.84;5030347;28;20025;-91
2023/07/30 10:17:19;;;;;;;5.22;1.67;;;;;;;17.54;98.45;100036.53;5045262;28;20022;-93
2023/07/30 10:19:48;;;;;;;3.78;0.85;;;;;;;17.70;97.39;100033.31;5030861;28;20251;-92
2023/07/30 10:22:14;;;;;;;6.25;1.63;;;;;;;17.55;96.58;100036.38;5031126;28;20022;-92
2023/07/30 10:24:55;;;;;;;4.63;1.58;;;;;;;17.64;95.97;100037.31;5031531;28;20037;-93
2023/07/30 10:27:24;;;;;;;3.55;1.13;;;;;;;17.68;95.63;100038.69;5036052;28;20048;-93
2023/07/30 10:30:09;;;;;;;3.40;1.17;;;;;;;17.69;96.94;100039.50;5030659;28;20615;-94
2023/07/30 10:33:00;;;;;;;6.05;1.50;;;;;;;17.86;96.96;100043.16;5009765;28;20836;-90
2023/07/30 10:35:46;;;;;;;9.32;1.38;;;;;;;17.92;95.61;100034.72;5031357;28;20095;-90
2023/07/30 10:38:30;;;;;;;3.58;0.90;;;;;;;17.69;95.86;100040.31;5033403;28;20099;-92
2023/07/30 10:41:05;;;;;;;3.05;0.80;;;;;;;17.83;95.94;100041.66;5033321;28;20374;-92
2023/07/30 10:43:34;;;;;;;4.18;0.90;;;;;;;17.92;96.84;100034.72;5033024;28;20026;-92
2023/07/30 10:45:59;;;;;;;8.38;1.25;;;;;;;17.92;96.64;100045.19;5033983;28;20038;-92
2023/07/30 10:48:35;;;;;;;2.90;0.80;;;;;;;17.82;97.14;100044.41;5033688;28;20020;-92
2023/07/30 10:51:03;;;;;;;2.38;0.77;;;;;;;17.53;100.00;100047.91;5032213;28;20021;-91
2023/07/30 10:53:28;;;;;;;5.47;0.80;;;;;;;17.51;100.00;100040.25;5036434;28;20028;-92
2023/07/30 10:55:55;;;;;;;1.85;0.70;;;;;;;17.56;100.00;100039.84;5031613;28;20026;-92
2023/07/30 10:58:22;;;;;;;2.90;0.85;;;;;;;17.28;100.00;100036.34;5016456;28;20034;-92
2023/07/30 11:00:49;;;;;;;2.00;0.63;;;;;;;17.48;100.00;100045.75;5015154;28;20028;-92
2023/07/30 11:03:14;;;;;;;3.55;0.70;;;;;;;17.37;100.00;100039.88;5033863;28;20025;-92
2023/07/30 11:05:39;;;;;;;2.83;0.68;;;;;;;17.33;100.00;100042.75;5033934;28;20033;-93
2023/07/30 11:08:05;;;;;;;2.13;0.77;;;;;;;17.35;100.00;100042.63;5032010;28;20025;-92
2023/07/30 11:10:30;;;;;;;1.33;0.65;;;;;;;17.37;100.00;100043.31;5014809;28;20067;-91
2023/07/30 11:12:57;;;;;;;1.88;0.60;;;;;;;17.49;100.00;100050.00;5034385;28;20990;-92
2023/07/30 11:15:24;;;;;;;1.85;0.70;;;;;;;17.51;100.00;100042.88;5034232;28;20022;-92